Nearby METAR Reports

Meteorological Terminal Air Report (METAR)

K3I2 - Pt Pleasant, West Virginia, USA
Distance from station: S 11mi, 18km
Updated: Fri, 07-Dec-2018 8:20am EST
NOT Current
Partly cloudy
Partly cloudy
 Wind from calm
Wind: Calm
Barometer: 30.51 inHg , 1033.2 hPa
Clouds: Partly cloudy
Visibility: 10 miles , 16 km
Cloud details: Partly cloudy 2700 ft
2018/12/07 13:20 K3I2 071320Z AUTO 00000KT 10SM SCT027 A3051 RMK AO2 PNO
KUNI - Athens, Ohio, USA
Distance from station: NW 13mi, 21km
Updated: Wed, 19-Dec-2018 6:35am EST
Clear
Clear
 Wind from calm
Wind: Calm
Temperature: 21°F , -6°C
Dew Point: 21°F , -6°C
Humidity: 100%
Barometer: 30.08 inHg , 1018.6 hPa
Clouds: Clear
Visibility: 10 miles , 16 km
2018/12/19 11:35 KUNI 191135Z AUTO 00000KT 10SM CLR M06/M06 A3008 RMK AO2 T10561056
 
KPKB - Parkersburg, West Virginia, USA
Distance from station: ENE 40mi, 65km
Updated: Wed, 19-Dec-2018 5:53am EST
Clear
Clear
 Wind from calm
Wind: Calm
Temperature: 23°F , -5°C
Dew Point: 19°F , -7°C
Humidity: 86%
Barometer: 30.10 inHg , 1019.3 hPa
Clouds: Clear
Visibility: 9 miles , 14 km
2018/12/19 10:53 KPKB 191053Z AUTO 00000KT 9SM CLR M05/M07 A3010 RMK AO2 SLP201 I1000 T10501072
KCRW - Charleston, West Virginia, USA
Distance from station: SSE 55mi, 88km
Updated: Wed, 19-Dec-2018 5:54am EST
Clear
Clear
 Wind from calm
Wind: Calm
Temperature: 27°F , -3°C
Dew Point: 25°F , -4°C
Humidity: 93%
Barometer: 30.07 inHg , 1018.3 hPa
Clouds: Clear
Visibility: 10 miles , 16 km
2018/12/19 10:54 KCRW 191054Z 00000KT 10SM CLR M03/M04 A3007 RMK AO2 SLP189 T10331039 $
 
KHTS - Huntington, West Virginia, USA
Distance from station: SSW 55mi, 89km
Updated: Wed, 19-Dec-2018 5:51am EST
Clear
Clear
 Wind from calm
Wind: Calm
Temperature: 27°F , -3°C
Dew Point: 25°F , -4°C
Humidity: 93%
Barometer: 30.06 inHg , 1017.9 hPa
Clouds: Clear
Visibility: 8 miles , 13 km
2018/12/19 10:51 KHTS 191051Z 00000KT 8SM CLR M03/M04 A3006 RMK AO2 SLP186 I1000 T10281044
KLHQ - Lancaster, Ohio, USA
Distance from station: NW 56mi, 91km
Updated: Wed, 19-Dec-2018 5:53am EST
Clear
Clear
 Wind from calm
Wind: Calm
Temperature: 21°F , -6°C
Dew Point: 19°F , -7°C
Humidity: 93%
Barometer: 30.07 inHg , 1018.3 hPa
Clouds: Clear
Visibility: 7 miles , 11 km
2018/12/19 10:53 KLHQ 191053Z AUTO 00000KT 7SM CLR M06/M07 A3007 RMK AO2 SLP193 I1000 T10561067
 
KZZV - Zanesville, Ohio, USA
Distance from station: N 61mi, 99km
Updated: Wed, 19-Dec-2018 5:53am EST
Clear
Clear
 Wind from calm
Wind: Calm
Temperature: 21°F , -6°C
Dew Point: 18°F , -8°C
Humidity: 86%
Barometer: 30.08 inHg , 1018.6 hPa
Clouds: Clear
Visibility: 8 miles , 13 km
2018/12/19 10:53 KZZV 191053Z AUTO 00000KT 8SM CLR M06/M08 A3008 RMK AO2 SLP197 I1000 T10561078
KLCK - Rickenbacker Ang, Ohio, USA
Distance from station: NW 68mi, 110km
Updated: Wed, 19-Dec-2018 6:15am EST
Clear
Clear
 Wind from NE
Wind: NE 5 mph , 7 km/h
Temperature: 23°F , -5°C
Wind Chill: 17°F , -8°C
Dew Point: 21°F , -6°C
Humidity: 93%
Barometer: 30.07 inHg , 1018.3 hPa
Clouds: Clear
Visibility: 10 miles , 16 km
2018/12/19 11:15 KLCK 191115Z AUTO 04004KT 10SM CLR M05/M06 A3007 RMK AO2 T10501060
 
KVTA - Newark, Ohio, USA
Distance from station: NNW 68mi, 110km
Updated: Wed, 19-Dec-2018 5:54am EST
Mist, Clear
Mist, Clear
 Wind from calm
Wind: Calm
Temperature: 23°F , -5°C
Dew Point: 19°F , -7°C
Humidity: 86%
Barometer: 30.08 inHg , 1018.6 hPa
Summary: Mist
Clouds: Clear
Visibility: 6 miles , 10 km
2018/12/19 10:54 KVTA 191054Z AUTO 00000KT 6SM BR CLR M05/M07 A3008 RMK AO2 SLP195 I1000 T10501072